sensor_id;sensor_type;location;lat;lon;timestamp;pressure;altitude;pressure_sealevel;temperature;humidity
77263;BME280;66373;52.334;4.806;2023-10-08T00:02:10;102242.28;;;20.68;62.94
77263;BME280;66373;52.334;4.806;2023-10-08T00:04:40;102178.22;;;20.23;62.82
77263;BME280;66373;52.334;4.806;2023-10-08T00:07:10;102238.81;;;20.64;65.81
77263;BME280;66373;52.334;4.806;2023-10-08T00:09:37;102196.28;;;20.49;64.52
77263;BME280;66373;52.334;4.806;2023-10-08T00:12:06;102224.84;;;20.69;63.75
77263;BME280;66373;52.334;4.806;2023-10-08T00:14:36;102143.41;;;20.18;63.17
77263;BME280;66373;52.334;4.806;2023-10-08T00:17:12;102177.22;;;20.38;62.81
77263;BME280;66373;52.334;4.806;2023-10-08T00:19:40;102234.41;;;20.70;62.98
77263;BME280;66373;52.334;4.806;2023-10-08T00:22:08;102170.34;;;20.26;62.68
77263;BME280;66373;52.334;4.806;2023-10-08T00:24:36;102231.81;;;20.68;63.16
77263;BME280;66373;52.334;4.806;2023-10-08T00:27:09;102117.38;;;20.06;63.00
77263;BME280;66373;52.334;4.806;2023-10-08T00:29:40;102132.94;;;20.21;62.67
77263;BME280;66373;52.334;4.806;2023-10-08T00:32:10;102122.50;;;20.18;62.78
77263;BME280;66373;52.334;4.806;2023-10-08T00:34:40;102203.94;;;20.65;62.86
77263;BME280;66373;52.334;4.806;2023-10-08T00:37:09;102137.25;;;20.25;62.98
77263;BME280;66373;52.334;4.806;2023-10-08T00:39:40;102207.44;;;20.64;62.79
77263;BME280;66373;52.334;4.806;2023-10-08T00:42:10;102210.94;;;20.63;62.69
77263;BME280;66373;52.334;4.806;2023-10-08T00:44:38;102110.44;;;20.05;62.61
77263;BME280;66373;52.334;4.806;2023-10-08T00:47:15;102194.38;;;20.63;62.94
77263;BME280;66373;52.334;4.806;2023-10-08T00:49:47;102111.25;;;20.11;62.97
77263;BME280;66373;52.334;4.806;2023-10-08T00:52:34;102134.66;;;20.23;62.94
77263;BME280;66373;52.334;4.806;2023-10-08T00:55:14;102093.91;;;20.03;62.63
77263;BME280;66373;52.334;4.806;2023-10-08T00:57:53;102158.06;;;20.34;62.40
77263;BME280;66373;52.334;4.806;2023-10-08T01:00:24;102167.63;;;20.38;62.74
77263;BME280;66373;52.334;4.806;2023-10-08T01:02:59;102171.09;;;20.42;62.49
77263;BME280;66373;52.334;4.806;2023-10-08T01:05:27;102151.97;;;20.32;62.72
77263;BME280;66373;52.334;4.806;2023-10-08T01:08:15;102163.28;;;20.32;62.60
77263;BME280;66373;52.334;4.806;2023-10-08T01:10:48;102178.97;;;20.32;62.26
77263;BME280;66373;52.334;4.806;2023-10-08T01:13:30;102164.31;;;20.16;62.71
77263;BME280;66373;52.334;4.806;2023-10-08T01:16:03;102130.59;;;19.92;62.70
77263;BME280;66373;52.334;4.806;2023-10-08T01:18:30;102177.34;;;20.22;62.49
77263;BME280;66373;52.334;4.806;2023-10-08T01:21:00;102200.72;;;20.36;62.36
77263;BME280;66373;52.334;4.806;2023-10-08T01:23:37;102228.56;;;20.43;62.52
77263;BME280;66373;52.334;4.806;2023-10-08T01:26:05;102171.28;;;20.16;62.52
77263;BME280;66373;52.334;4.806;2023-10-08T01:28:38;102229.41;;;20.47;62.47
77263;BME280;66373;52.334;4.806;2023-10-08T01:31:06;102151.47;;;19.93;62.82
77263;BME280;66373;52.334;4.806;2023-10-08T01:33:36;102154.94;;;19.94;62.53
77263;BME280;66373;52.334;4.806;2023-10-08T01:36:04;102213.91;;;20.22;62.97
77263;BME280;66373;52.334;4.806;2023-10-08T01:38:38;102275.47;;;20.58;63.11
77263;BME280;66373;52.334;4.806;2023-10-08T01:41:07;102228.75;;;20.19;62.74
77263;BME280;66373;52.334;4.806;2023-10-08T01:43:44;102295.53;;;20.56;62.81
77263;BME280;66373;52.334;4.806;2023-10-08T01:46:12;102227.88;;;20.21;63.00
77263;BME280;66373;52.334;4.806;2023-10-08T01:48:41;102251.25;;;20.35;62.53
77263;BME280;66373;52.334;4.806;2023-10-08T01:51:10;102214.81;;;20.18;62.96
77263;BME280;66373;52.334;4.806;2023-10-08T01:53:47;102292.91;;;20.56;62.43
77263;BME280;66373;52.334;4.806;2023-10-08T01:56:14;102166.22;;;19.99;62.56
77263;BME280;66373;52.334;4.806;2023-10-08T01:58:41;102205.22;;;20.22;62.58
77263;BME280;66373;52.334;4.806;2023-10-08T02:01:08;102236.34;;;20.51;62.80
77263;BME280;66373;52.334;4.806;2023-10-08T02:03:38;102164.53;;;19.90;62.58
77263;BME280;66373;52.334;4.806;2023-10-08T02:06:07;102276.34;;;20.59;62.39
77263;BME280;66373;52.334;4.806;2023-10-08T02:08:34;102270.31;;;20.52;62.49
77263;BME280;66373;52.334;4.806;2023-10-08T02:11:03;102276.47;;;20.47;62.71
77263;BME280;66373;52.334;4.806;2023-10-08T02:13:32;102246.00;;;20.41;62.55
77263;BME280;66373;52.334;4.806;2023-10-08T02:16:00;102265.00;;;20.60;62.47
77263;BME280;66373;52.334;4.806;2023-10-08T02:18:27;102251.22;;;20.46;62.96
77263;BME280;66373;52.334;4.806;2023-10-08T02:20:56;102213.06;;;20.19;62.78
77263;BME280;66373;52.334;4.806;2023-10-08T02:23:24;102165.28;;;20.03;62.25
77263;BME280;66373;52.334;4.806;2023-10-08T02:25:53;102230.16;;;20.59;62.39
77263;BME280;66373;52.334;4.806;2023-10-08T02:28:22;102283.31;;;20.60;62.63
77263;BME280;66373;52.334;4.806;2023-10-08T02:30:50;102256.50;;;20.38;62.66
77263;BME280;66373;52.334;4.806;2023-10-08T02:33:17;102284.16;;;20.60;62.74
77263;BME280;66373;52.334;4.806;2023-10-08T02:35:46;102183.66;;;19.95;62.38
77263;BME280;66373;52.334;4.806;2023-10-08T02:38:17;102304.22;;;20.61;62.74
77263;BME280;66373;52.334;4.806;2023-10-08T02:40:47;102203.41;;;20.27;62.47
77263;BME280;66373;52.334;4.806;2023-10-08T02:43:15;102222.50;;;20.38;62.39
77263;BME280;66373;52.334;4.806;2023-10-08T02:45:45;102280.69;;;20.61;62.50
77263;BME280;66373;52.334;4.806;2023-10-08T02:48:14;102291.13;;;20.61;62.55
77263;BME280;66373;52.334;4.806;2023-10-08T02:50:42;102228.59;;;20.34;62.64
77263;BME280;66373;52.334;4.806;2023-10-08T02:53:11;102247.72;;;20.45;62.53
77263;BME280;66373;52.334;4.806;2023-10-08T02:55:44;102255.53;;;20.48;62.54
77263;BME280;66373;52.334;4.806;2023-10-08T02:58:12;102285.91;;;20.61;62.38
77263;BME280;66373;52.334;4.806;2023-10-08T03:00:41;102219.19;;;20.18;62.77
77263;BME280;66373;52.334;4.806;2023-10-08T03:03:10;102259.97;;;20.37;62.57
77263;BME280;66373;52.334;4.806;2023-10-08T03:05:44;102160.13;;;19.98;62.49
77263;BME280;66373;52.334;4.806;2023-10-08T03:08:13;102194.84;;;20.11;62.41
77263;BME280;66373;52.334;4.806;2023-10-08T03:10:45;102228.63;;;20.31;62.45
77263;BME280;66373;52.334;4.806;2023-10-08T03:13:14;102223.50;;;20.22;62.21
77263;BME280;66373;52.334;4.806;2023-10-08T03:15:44;102305.94;;;20.61;62.83
77263;BME280;66373;52.334;4.806;2023-10-08T03:18:25;102293.94;;;20.32;62.46
77263;BME280;66373;52.334;4.806;2023-10-08T03:21:03;102335.63;;;20.54;62.19
77263;BME280;66373;52.334;4.806;2023-10-08T03:23:32;102343.44;;;20.61;62.52
77263;BME280;66373;52.334;4.806;2023-10-08T03:26:09;102230.69;;;19.94;62.46
77263;BME280;66373;52.334;4.806;2023-10-08T03:28:38;102335.59;;;20.58;62.38
77263;BME280;66373;52.334;4.806;2023-10-08T03:31:07;102303.53;;;20.38;62.61
77263;BME280;66373;52.334;4.806;2023-10-08T03:33:43;102339.06;;;20.60;62.57
77263;BME280;66373;52.334;4.806;2023-10-08T03:36:15;102352.16;;;20.60;62.42
77263;BME280;66373;52.334;4.806;2023-10-08T03:38:47;102248.84;;;20.08;62.30
77263;BME280;66373;52.334;4.806;2023-10-08T03:41:21;102275.75;;;20.22;62.47
77263;BME280;66373;52.334;4.806;2023-10-08T03:43:53;102353.91;;;20.58;62.46
77263;BME280;66373;52.334;4.806;2023-10-08T03:46:28;102264.56;;;20.03;62.38
77263;BME280;66373;52.334;4.806;2023-10-08T03:48:56;102367.09;;;20.43;62.28
77263;BME280;66373;52.334;4.806;2023-10-08T03:51:30;102356.75;;;20.26;62.57
77263;BME280;66373;52.334;4.806;2023-10-08T03:54:06;102344.50;;;20.30;62.66
77263;BME280;66373;52.334;4.806;2023-10-08T03:56:42;102304.59;;;20.05;62.56
77263;BME280;66373;52.334;4.806;2023-10-08T03:59:13;102392.25;;;20.56;62.65
77263;BME280;66373;52.334;4.806;2023-10-08T04:01:47;102394.88;;;20.55;62.74
77263;BME280;66373;52.334;4.806;2023-10-08T04:04:21;102400.97;;;20.60;62.54
77263;BME280;66373;52.334;4.806;2023-10-08T04:06:56;102303.69;;;20.09;62.31
77263;BME280;66373;52.334;4.806;2023-10-08T04:09:43;102393.13;;;20.58;62.77
77263;BME280;66373;52.334;4.806;2023-10-08T04:12:13;102305.44;;;20.07;62.72
77263;BME280;66373;52.334;4.806;2023-10-08T04:14:44;102294.16;;;20.04;62.77
77263;BME280;66373;52.334;4.806;2023-10-08T04:17:12;102278.56;;;19.94;62.72
77263;BME280;66373;52.334;4.806;2023-10-08T04:19:49;102282.91;;;19.98;62.53
77263;BME280;66373;52.334;4.806;2023-10-08T04:22:17;102340.09;;;20.41;62.55
77263;BME280;66373;52.334;4.806;2023-10-08T04:24:44;102249.00;;;19.89;62.58
77263;BME280;66373;52.334;4.806;2023-10-08T04:27:13;102360.88;;;20.59;62.86
77263;BME280;66373;52.334;4.806;2023-10-08T04:29:40;102359.22;;;20.52;62.48
77263;BME280;66373;52.334;4.806;2023-10-08T04:32:08;102385.28;;;20.55;62.91
77263;BME280;66373;52.334;4.806;2023-10-08T04:34:37;102382.75;;;20.46;62.95
77263;BME280;66373;52.334;4.806;2023-10-08T04:37:11;102364.53;;;20.31;62.28
77263;BME280;66373;52.334;4.806;2023-10-08T04:39:39;102405.34;;;20.53;62.57
77263;BME280;66373;52.334;4.806;2023-10-08T04:42:12;102388.03;;;20.40;62.56
77263;BME280;66373;52.334;4.806;2023-10-08T04:44:51;102394.94;;;20.50;62.53
77263;BME280;66373;52.334;4.806;2023-10-08T04:47:20;102320.25;;;20.10;62.36
77263;BME280;66373;52.334;4.806;2023-10-08T04:49:59;102402.72;;;20.56;62.69
77263;BME280;66373;52.334;4.806;2023-10-08T04:52:31;102337.59;;;20.23;62.52
77263;BME280;66373;52.334;4.806;2023-10-08T04:55:00;102398.34;;;20.57;62.75
77263;BME280;66373;52.334;4.806;2023-10-08T04:57:38;102388.03;;;20.36;62.64
77263;BME280;66373;52.334;4.806;2023-10-08T05:00:09;102398.47;;;20.45;62.88
77263;BME280;66373;52.334;4.806;2023-10-08T05:02:40;102341.19;;;20.02;62.41
77263;BME280;66373;52.334;4.806;2023-10-08T05:05:14;102338.63;;;19.97;62.56
77263;BME280;66373;52.334;4.806;2023-10-08T05:07:59;102431.47;;;20.56;62.80
77263;BME280;66373;52.334;4.806;2023-10-08T05:10:54;102434.97;;;20.55;62.35
77263;BME280;66373;52.334;4.806;2023-10-08T05:13:36;102373.34;;;20.16;62.46
77263;BME280;66373;52.334;4.806;2023-10-08T05:16:22;102421.09;;;20.49;62.51
77263;BME280;66373;52.334;4.806;2023-10-08T05:19:03;102401.09;;;20.40;62.74
77263;BME280;66373;52.334;4.806;2023-10-08T05:21:49;102418.41;;;20.55;62.32
77263;BME280;66373;52.334;4.806;2023-10-08T05:24:33;102418.41;;;20.53;62.65
77263;BME280;66373;52.334;4.806;2023-10-08T05:27:05;102414.09;;;20.51;62.47
77263;BME280;66373;52.334;4.806;2023-10-08T05:29:50;102421.91;;;20.54;62.48
77263;BME280;66373;52.334;4.806;2023-10-08T05:32:41;102447.22;;;20.52;62.49
77263;BME280;66373;52.334;4.806;2023-10-08T05:35:27;102406.34;;;20.29;62.57
77263;BME280;66373;52.334;4.806;2023-10-08T05:38:16;102343.00;;;19.89;62.82
77263;BME280;66373;52.334;4.806;2023-10-08T05:40:51;102368.13;;;20.12;62.56
77263;BME280;66373;52.334;4.806;2023-10-08T05:43:42;102383.75;;;20.24;62.72
77263;BME280;66373;52.334;4.806;2023-10-08T05:46:26;102432.41;;;20.52;62.60
77263;BME280;66373;52.334;4.806;2023-10-08T05:49:12;102330.81;;;19.93;62.58
77263;BME280;66373;52.334;4.806;2023-10-08T05:51:57;102435.91;;;20.45;62.60
77263;BME280;66373;52.334;4.806;2023-10-08T05:54:50;102382.97;;;20.05;62.46
77263;BME280;66373;52.334;4.806;2023-10-08T05:57:37;102466.41;;;20.48;62.28
77263;BME280;66373;52.334;4.806;2023-10-08T06:00:07;102456.84;;;20.39;62.64
77263;BME280;66373;52.334;4.806;2023-10-08T06:02:55;102475.97;;;20.50;62.33
77263;BME280;66373;52.334;4.806;2023-10-08T06:05:37;102471.63;;;20.49;62.51
77263;BME280;66373;52.334;4.806;2023-10-08T06:08:10;102388.25;;;19.97;62.26
77263;BME280;66373;52.334;4.806;2023-10-08T06:10:39;102481.22;;;20.47;62.57
77263;BME280;66373;52.334;4.806;2023-10-08T06:13:13;102455.09;;;20.35;62.21
77263;BME280;66373;52.334;4.806;2023-10-08T06:15:43;102437.78;;;20.19;62.37
77263;BME280;66373;52.334;4.806;2023-10-08T06:18:14;102405.59;;;20.05;62.30
77263;BME280;66373;52.334;4.806;2023-10-08T06:20:42;102364.78;;;19.82;62.54
77263;BME280;66373;52.334;4.806;2023-10-08T06:23:10;102468.16;;;20.44;62.24
77263;BME280;66373;52.334;4.806;2023-10-08T06:25:39;102462.09;;;20.39;62.30
77263;BME280;66373;52.334;4.806;2023-10-08T06:28:14;102456.03;;;20.26;62.30
77263;BME280;66373;52.334;4.806;2023-10-08T06:30:45;102500.38;;;20.48;62.46
77263;BME280;66373;52.334;4.806;2023-10-08T06:33:12;102435.22;;;20.05;62.28
77263;BME280;66373;52.334;4.806;2023-10-08T06:35:40;102448.25;;;20.10;62.35
77263;BME280;66373;52.334;4.806;2023-10-08T06:38:10;102451.75;;;20.09;62.33
77263;BME280;66373;52.334;4.806;2023-10-08T06:40:40;102415.25;;;19.90;62.82
77263;BME280;66373;52.334;4.806;2023-10-08T06:43:06;102450.84;;;20.14;62.42
77263;BME280;66373;52.334;4.806;2023-10-08T06:45:44;102410.91;;;19.86;62.52
77263;BME280;66373;52.334;4.806;2023-10-08T06:48:13;102391.78;;;19.77;62.21
77263;BME280;66373;52.334;4.806;2023-10-08T06:50:46;102439.56;;;20.08;62.47
77263;BME280;66373;52.334;4.806;2023-10-08T06:53:14;102474.28;;;20.28;62.22
77263;BME280;66373;52.334;4.806;2023-10-08T06:55:44;102417.00;;;19.91;62.25
77263;BME280;66373;52.334;4.806;2023-10-08T06:58:14;102469.13;;;20.19;62.46
77263;BME280;66373;52.334;4.806;2023-10-08T07:00:44;102503.00;;;20.45;62.14
77263;BME280;66373;52.334;4.806;2023-10-08T07:03:15;102464.78;;;20.15;61.99
77263;BME280;66373;52.334;4.806;2023-10-08T07:05:44;102524.78;;;20.45;62.48
77263;BME280;66373;52.334;4.806;2023-10-08T07:08:21;102521.31;;;20.43;62.17
77263;BME280;66373;52.334;4.806;2023-10-08T07:10:49;102461.31;;;20.13;62.19
77263;BME280;66373;52.334;4.806;2023-10-08T07:13:16;102503.03;;;20.37;62.09
77263;BME280;66373;52.334;4.806;2023-10-08T07:15:47;102506.53;;;20.39;62.10
77263;BME280;66373;52.334;4.806;2023-10-08T07:18:15;102446.53;;;20.03;62.33
77263;BME280;66373;52.334;4.806;2023-10-08T07:20:51;102503.91;;;20.39;62.20
77263;BME280;66373;52.334;4.806;2023-10-08T07:23:21;102518.69;;;20.43;62.30
77263;BME280;66373;52.334;4.806;2023-10-08T07:25:53;102503.88;;;20.34;62.45
77263;BME280;66373;52.334;4.806;2023-10-08T07:28:24;102518.72;;;20.37;62.37
77263;BME280;66373;52.334;4.806;2023-10-08T07:30:54;102509.13;;;20.30;62.04
77263;BME280;66373;52.334;4.806;2023-10-08T07:33:21;102524.78;;;20.36;62.48
77263;BME280;66373;52.334;4.806;2023-10-08T07:35:51;102507.44;;;20.18;62.08
77263;BME280;66373;52.334;4.806;2023-10-08T07:38:25;102505.72;;;20.10;62.21
77263;BME280;66373;52.334;4.806;2023-10-08T07:40:55;102554.44;;;20.44;62.33
77263;BME280;66373;52.334;4.806;2023-10-08T07:43:22;102535.31;;;20.24;62.21
77263;BME280;66373;52.334;4.806;2023-10-08T07:45:49;102554.44;;;20.41;62.19
77263;BME280;66373;52.334;4.806;2023-10-08T07:48:21;102525.75;;;20.20;61.96
77263;BME280;66373;52.334;4.806;2023-10-08T07:50:56;102559.66;;;20.44;62.04
77263;BME280;66373;52.334;4.806;2023-10-08T07:53:24;102536.13;;;20.33;61.94
77263;BME280;66373;52.334;4.806;2023-10-08T07:56:04;102503.13;;;20.08;61.76
77263;BME280;66373;52.334;4.806;2023-10-08T07:58:34;102513.56;;;20.11;61.81
77263;BME280;66373;52.334;4.806;2023-10-08T08:01:03;102533.53;;;20.29;62.00
77263;BME280;66373;52.334;4.806;2023-10-08T08:03:33;102558.78;;;20.41;62.25
77263;BME280;66373;52.334;4.806;2023-10-08T08:06:04;102568.38;;;20.43;62.00
77263;BME280;66373;52.334;4.806;2023-10-08T08:08:35;102561.38;;;20.36;61.98
77263;BME280;66373;52.334;4.806;2023-10-08T08:11:08;102469.25;;;19.82;62.21
77263;BME280;66373;52.334;4.806;2023-10-08T08:13:43;102495.34;;;19.82;61.87
77263;BME280;66373;52.334;4.806;2023-10-08T08:16:11;102557.97;;;20.19;62.13
77263;BME280;66373;52.334;4.806;2023-10-08T08:18:46;102613.69;;;20.44;62.03
77263;BME280;66373;52.334;4.806;2023-10-08T08:21:15;102501.44;;;19.86;61.95
77263;BME280;66373;52.334;4.806;2023-10-08T08:23:46;102596.22;;;20.37;62.22
77263;BME280;66373;52.334;4.806;2023-10-08T08:26:15;102493.63;;;19.81;62.09
77263;BME280;66373;52.334;4.806;2023-10-08T08:28:57;102607.56;;;20.43;62.09
77263;BME280;66373;52.334;4.806;2023-10-08T08:31:26;102582.31;;;20.30;61.64
77263;BME280;66373;52.334;4.806;2023-10-08T08:33:58;102584.91;;;20.34;62.02
77263;BME280;66373;52.334;4.806;2023-10-08T08:36:28;102608.44;;;20.45;62.01
77263;BME280;66373;52.334;4.806;2023-10-08T08:39:09;102557.09;;;20.12;61.99
77263;BME280;66373;52.334;4.806;2023-10-08T08:41:37;102596.25;;;20.41;61.93
77263;BME280;66373;52.334;4.806;2023-10-08T08:44:05;102549.25;;;20.17;61.70
77263;BME280;66373;52.334;4.806;2023-10-08T08:46:37;102489.25;;;19.82;61.71
77263;BME280;66373;52.334;4.806;2023-10-08T08:49:07;102594.50;;;20.46;61.79
77263;BME280;66373;52.334;4.806;2023-10-08T08:51:35;102554.47;;;20.23;61.64
77263;BME280;66373;52.334;4.806;2023-10-08T08:54:04;102598.84;;;20.47;62.09
77263;BME280;66373;52.334;4.806;2023-10-08T08:56:33;102572.72;;;20.43;61.77
77263;BME280;66373;52.334;4.806;2023-10-08T08:59:00;102579.69;;;20.48;61.82
77263;BME280;66373;52.334;4.806;2023-10-08T09:01:29;102580.56;;;20.44;61.76
77263;BME280;66373;52.334;4.806;2023-10-08T09:04:00;102562.25;;;20.33;61.54
77263;BME280;66373;52.334;4.806;2023-10-08T09:06:32;102592.75;;;20.48;61.69
77263;BME280;66373;52.334;4.806;2023-10-08T09:09:00;102597.97;;;20.51;61.96
77263;BME280;66373;52.334;4.806;2023-10-08T09:11:47;102538.81;;;20.18;62.01
77263;BME280;66373;52.334;4.806;2023-10-08T09:14:19;102510.13;;;19.98;62.02
77263;BME280;66373;52.334;4.806;2023-10-08T09:16:46;102552.75;;;20.22;61.98
77263;BME280;66373;52.334;4.806;2023-10-08T09:19:16;102588.38;;;20.37;61.98
77263;BME280;66373;52.334;4.806;2023-10-08T09:21:59;102523.16;;;20.02;61.78
77263;BME280;66373;52.334;4.806;2023-10-08T09:24:27;102495.34;;;19.91;61.62
77263;BME280;66373;52.334;4.806;2023-10-08T09:26:54;102539.69;;;20.19;61.82
77263;BME280;66373;52.334;4.806;2023-10-08T09:29:24;102599.66;;;20.57;61.89
77263;BME280;66373;52.334;4.806;2023-10-08T09:31:53;102495.34;;;19.91;61.66
77263;BME280;66373;52.334;4.806;2023-10-08T09:34:21;102536.19;;;20.20;61.88
77263;BME280;66373;52.334;4.806;2023-10-08T09:36:49;102504.03;;;19.96;61.81
77263;BME280;66373;52.334;4.806;2023-10-08T09:39:20;102503.16;;;19.99;61.82
77263;BME280;66373;52.334;4.806;2023-10-08T09:41:53;102550.94;;;20.27;62.01
77263;BME280;66373;52.334;4.806;2023-10-08T09:44:23;102500.56;;;20.01;61.68
77263;BME280;66373;52.334;4.806;2023-10-08T09:46:53;102586.59;;;20.55;61.79
77263;BME280;66373;52.334;4.806;2023-10-08T09:49:29;102538.78;;;20.24;61.92
77263;BME280;66373;52.334;4.806;2023-10-08T09:52:03;102509.22;;;20.09;61.57
77263;BME280;66373;52.334;4.806;2023-10-08T09:54:37;102583.16;;;20.52;61.69
77263;BME280;66373;52.334;4.806;2023-10-08T09:57:07;102591.81;;;20.61;61.56
77263;BME280;66373;52.334;4.806;2023-10-08T09:59:36;102464.00;;;19.88;61.73
77263;BME280;66373;52.334;4.806;2023-10-08T10:02:05;102537.06;;;20.25;61.81
77263;BME280;66373;52.334;4.806;2023-10-08T10:04:35;102594.41;;;20.64;61.57
77263;BME280;66373;52.334;4.806;2023-10-08T10:07:10;102521.38;;;20.19;61.27
77263;BME280;66373;52.334;4.806;2023-10-08T10:09:43;102596.19;;;20.61;61.74
77263;BME280;66373;52.334;4.806;2023-10-08T10:12:11;102596.16;;;20.67;61.58
77263;BME280;66373;52.334;4.806;2023-10-08T10:14:45;102557.91;;;20.43;61.82
77263;BME280;66373;52.334;4.806;2023-10-08T10:17:14;102597.91;;;20.63;61.45
77263;BME280;66373;52.334;4.806;2023-10-08T10:19:44;102501.38;;;20.01;61.66
77263;BME280;66373;52.334;4.806;2023-10-08T10:22:14;102577.09;;;20.42;61.58
77263;BME280;66373;52.334;4.806;2023-10-08T10:24:56;102517.91;;;20.17;61.46
77263;BME280;66373;52.334;4.806;2023-10-08T10:27:25;102500.50;;;20.07;61.41
77263;BME280;66373;52.334;4.806;2023-10-08T10:30:02;102547.47;;;20.37;61.46
77263;BME280;66373;52.334;4.806;2023-10-08T10:32:34;102592.66;;;20.66;61.59
77263;BME280;66373;52.334;4.806;2023-10-08T10:35:02;102598.75;;;20.75;61.53
77263;BME280;66373;52.334;4.806;2023-10-08T10:37:31;102559.56;;;20.59;61.39
77263;BME280;66373;52.334;4.806;2023-10-08T10:40:09;102570.00;;;20.69;61.30
77263;BME280;66373;52.334;4.806;2023-10-08T10:42:38;102554.34;;;20.59;61.17
77263;BME280;66373;52.334;4.806;2023-10-08T10:45:13;102522.19;;;20.31;61.39
77263;BME280;66373;52.334;4.806;2023-10-08T10:48:00;102580.47;;;20.65;61.62
77263;BME280;66373;52.334;4.806;2023-10-08T10:50:37;102536.13;;;20.32;61.26
77263;BME280;66373;52.334;4.806;2023-10-08T10:53:14;102596.13;;;20.75;61.23
77263;BME280;66373;52.334;4.806;2023-10-08T10:55:43;102599.59;;;20.77;61.31
77263;BME280;66373;52.334;4.806;2023-10-08T10:58:24;102594.38;;;20.77;61.06
77263;BME280;66373;52.334;4.806;2023-10-08T11:00:52;102517.88;;;20.26;61.36
77263;BME280;66373;52.334;4.806;2023-10-08T11:03:25;102562.22;;;20.53;61.06
77263;BME280;66373;52.334;4.806;2023-10-08T11:05:58;102508.31;;;20.22;61.16
77263;BME280;66373;52.334;4.806;2023-10-08T11:08:33;102491.78;;;20.17;60.93
77263;BME280;66373;52.334;4.806;2023-10-08T11:11:04;102595.25;;;20.79;61.22
77263;BME280;66373;52.334;4.806;2023-10-08T11:13:33;102577.84;;;20.67;61.19
77263;BME280;66373;52.334;4.806;2023-10-08T11:16:15;102608.31;;;20.79;60.90
77263;BME280;66373;52.334;4.806;2023-10-08T11:18:45;102510.88;;;20.28;60.86
77263;BME280;66373;52.334;4.806;2023-10-08T11:21:16;102576.13;;;20.64;61.21
77263;BME280;66373;52.334;4.806;2023-10-08T11:23:49;102550.91;;;20.51;61.01
77263;BME280;66373;52.334;4.806;2023-10-08T11:26:26;102594.34;;;20.80;61.02
77263;BME280;66373;52.334;4.806;2023-10-08T11:29:05;102589.97;;;20.80;61.12
77263;BME280;66373;52.334;4.806;2023-10-08T11:31:40;102591.72;;;20.80;60.98
77263;BME280;66373;52.334;4.806;2023-10-08T11:34:10;102498.72;;;20.24;61.02
77263;BME280;66373;52.334;4.806;2023-10-08T11:36:39;102491.75;;;20.23;61.08
77263;BME280;66373;52.334;4.806;2023-10-08T11:39:21;102516.09;;;20.43;60.93
77263;BME280;66373;52.334;4.806;2023-10-08T11:41:57;102538.66;;;20.59;61.09
77263;BME280;66373;52.334;4.806;2023-10-08T11:44:30;102548.19;;;20.73;60.97
77263;BME280;66373;52.334;4.806;2023-10-08T11:47:01;102524.66;;;20.70;60.71
77263;BME280;66373;52.334;4.806;2023-10-08T11:49:38;102542.03;;;20.81;60.78
77263;BME280;66373;52.334;4.806;2023-10-08T11:52:12;102498.56;;;20.57;61.14
77263;BME280;66373;52.334;4.806;2023-10-08T11:54:41;102535.91;;;20.82;60.68
77263;BME280;66373;52.334;4.806;2023-10-08T11:57:12;102419.47;;;20.19;60.67
77263;BME280;66373;52.334;4.806;2023-10-08T11:59:40;102417.75;;;20.19;60.69
77263;BME280;66373;52.334;4.806;2023-10-08T12:02:07;102423.81;;;20.23;60.80
77263;BME280;66373;52.334;4.806;2023-10-08T12:04:36;102442.03;;;20.37;60.64
77263;BME280;66373;52.334;4.806;2023-10-08T12:07:03;102456.84;;;20.45;61.08
77263;BME280;66373;52.334;4.806;2023-10-08T12:09:33;102466.41;;;20.51;61.07
77263;BME280;66373;52.334;4.806;2023-10-08T12:12:04;102434.22;;;20.32;60.87
77263;BME280;66373;52.334;4.806;2023-10-08T12:14:36;102520.19;;;20.85;60.77
77263;BME280;66373;52.334;4.806;2023-10-08T12:17:03;102508.03;;;20.81;60.75
77263;BME280;66373;52.334;4.806;2023-10-08T12:19:38;102498.50;;;20.73;60.63
77263;BME280;66373;52.334;4.806;2023-10-08T12:22:06;102465.47;;;20.56;60.83
77263;BME280;66373;52.334;4.806;2023-10-08T12:24:34;102458.47;;;20.58;60.86
77263;BME280;66373;52.334;4.806;2023-10-08T12:27:05;102499.28;;;20.85;61.09
77263;BME280;66373;52.334;4.806;2023-10-08T12:29:33;102490.56;;;20.82;60.91
77263;BME280;66373;52.334;4.806;2023-10-08T12:32:06;102465.38;;;20.75;60.95
77263;BME280;66373;52.334;4.806;2023-10-08T12:34:43;102440.19;;;20.60;60.93
77263;BME280;66373;52.334;4.806;2023-10-08T12:37:10;102397.59;;;20.35;60.90
77263;BME280;66373;52.334;4.806;2023-10-08T12:39:42;102395.00;;;20.33;60.72
77263;BME280;66373;52.334;4.806;2023-10-08T12:42:26;102379.34;;;20.27;60.74
77263;BME280;66373;52.334;4.806;2023-10-08T12:44:53;102375.06;;;20.22;60.83
77263;BME280;66373;52.334;4.806;2023-10-08T12:47:24;102425.44;;;20.48;60.57
77263;BME280;66373;52.334;4.806;2023-10-08T12:49:55;102378.53;;;20.24;60.53
77263;BME280;66373;52.334;4.806;2023-10-08T12:52:23;102487.09;;;20.84;60.80
77263;BME280;66373;52.334;4.806;2023-10-08T12:54:52;102499.25;;;20.90;60.95
77263;BME280;66373;52.334;4.806;2023-10-08T12:57:21;102407.22;;;20.38;60.89
77263;BME280;66373;52.334;4.806;2023-10-08T12:59:57;102445.38;;;20.66;60.51
77263;BME280;66373;52.334;4.806;2023-10-08T13:02:26;102454.84;;;20.81;60.68
77263;BME280;66373;52.334;4.806;2023-10-08T13:04:54;102428.81;;;20.62;60.61
77263;BME280;66373;52.334;4.806;2023-10-08T13:07:23;102444.47;;;20.69;60.89
77263;BME280;66373;52.334;4.806;2023-10-08T13:09:52;102414.94;;;20.53;60.71
77263;BME280;66373;52.334;4.806;2023-10-08T13:12:19;102405.41;;;20.47;60.72
77263;BME280;66373;52.334;4.806;2023-10-08T13:14:46;102435.81;;;20.57;60.44
77263;BME280;66373;52.334;4.806;2023-10-08T13:17:15;102475.72;;;20.87;60.69